createdAt,value
2022-08-14T00:02:27.368Z,14.30
2022-08-14T00:04:57.212Z,14.20
2022-08-14T00:07:25.456Z,14.20
2022-08-14T00:10:02.219Z,13.80
2022-08-14T00:12:48.219Z,13.50
2022-08-14T00:15:29.926Z,13.40
2022-08-14T00:18:14.496Z,13.20
2022-08-14T00:20:45.274Z,13.30
2022-08-14T00:23:17.770Z,13.30
2022-08-14T00:25:53.845Z,13.70
2022-08-14T00:28:36.774Z,13.90
2022-08-14T00:31:07.783Z,14.10
2022-08-14T00:33:39.332Z,14.10
2022-08-14T00:36:36.780Z,14.20
2022-08-14T00:39:09.263Z,14.20
2022-08-14T00:41:39.182Z,14.20
2022-08-14T00:44:08.354Z,13.80
2022-08-14T00:46:38.065Z,13.60
2022-08-14T00:49:08.200Z,13.30
2022-08-14T00:51:41.884Z,13.20
2022-08-14T00:54:16.675Z,13.20
2022-08-14T00:56:55.649Z,13.30
2022-08-14T00:59:25.649Z,13.20
2022-08-14T01:01:57.161Z,13.20
2022-08-14T01:04:52.158Z,13.30
2022-08-14T01:07:21.159Z,13.30
2022-08-14T01:09:51.709Z,13.40
2022-08-14T01:12:27.166Z,13.30
2022-08-14T01:14:58.680Z,13.20
2022-08-14T01:17:49.945Z,13.30
2022-08-14T01:20:39.759Z,13.40
2022-08-14T01:23:16.232Z,13.50
2022-08-14T01:25:47.940Z,13.50
2022-08-14T01:28:46.230Z,13.30
2022-08-14T01:31:06.706Z,13.20
2022-08-14T01:34:00.109Z,13.40
2022-08-14T01:36:24.356Z,13.50
2022-08-14T01:38:58.083Z,13.40
2022-08-14T01:41:30.288Z,13.40
2022-08-14T01:44:02.632Z,13.50
2022-08-14T01:46:36.789Z,13.50
2022-08-14T01:49:07.721Z,13.50
2022-08-14T01:51:36.543Z,13.60
2022-08-14T01:54:09.358Z,13.60
2022-08-14T01:56:39.723Z,13.70
2022-08-14T01:59:10.184Z,13.40
2022-08-14T02:01:51.175Z,13.80
2022-08-14T02:04:40.619Z,13.60
2022-08-14T02:07:15.788Z,13.60
2022-08-14T02:09:45.508Z,13.60
2022-08-14T02:12:26.468Z,13.60
2022-08-14T02:15:00.336Z,13.60
2022-08-14T02:17:30.620Z,13.50
2022-08-14T02:19:59.378Z,13.50
2022-08-14T02:22:32.838Z,13.50
2022-08-14T02:25:03.571Z,13.30
2022-08-14T02:28:25.234Z,13.40
2022-08-14T02:30:20.004Z,13.20
2022-08-14T02:32:50.509Z,13.20
2022-08-14T02:35:21.952Z,13.00
2022-08-14T02:37:54.680Z,13.00
2022-08-14T02:40:32.241Z,12.90
2022-08-14T02:43:03.357Z,12.90
2022-08-14T02:45:38.691Z,12.70
2022-08-14T02:49:04.654Z,12.70
2022-08-14T02:51:02.568Z,12.80
2022-08-14T02:53:31.455Z,12.40
2022-08-14T02:56:10.100Z,12.30
2022-08-14T02:58:55.532Z,12.20
2022-08-14T03:01:31.377Z,12.20
2022-08-14T03:04:12.479Z,12.10
2022-08-14T03:06:58.239Z,12.00
2022-08-14T03:09:41.691Z,12.00
2022-08-14T03:12:30.708Z,12.20
2022-08-14T03:15:00.651Z,12.20
2022-08-14T03:17:31.721Z,12.20
2022-08-14T03:20:11.374Z,12.10
2022-08-14T03:22:41.892Z,12.00
2022-08-14T03:25:12.134Z,12.10
2022-08-14T03:27:47.791Z,12.10
2022-08-14T03:30:24.768Z,11.80
2022-08-14T03:33:08.226Z,12.00
2022-08-14T03:35:39.850Z,12.00
2022-08-14T03:39:15.115Z,12.00
2022-08-14T03:40:58.362Z,12.00
2022-08-14T03:43:32.449Z,12.10
2022-08-14T03:46:01.148Z,12.40
2022-08-14T03:48:40.528Z,12.40
2022-08-14T03:51:09.991Z,12.40
2022-08-14T03:53:42.155Z,12.30
2022-08-14T03:56:14.077Z,12.10
2022-08-14T03:58:54.461Z,11.90
2022-08-14T04:01:24.568Z,12.00
2022-08-14T04:04:05.471Z,12.00
2022-08-14T04:06:42.617Z,11.90
2022-08-14T04:09:16.851Z,12.00
2022-08-14T04:11:45.507Z,11.90
2022-08-14T04:14:16.428Z,11.90
2022-08-14T04:16:47.379Z,11.90
2022-08-14T04:19:17.368Z,11.60
2022-08-14T04:22:02.458Z,11.70
2022-08-14T04:24:38.196Z,12.00
2022-08-14T04:27:09.394Z,12.20
2022-08-14T04:29:40.608Z,12.20
2022-08-14T04:33:02.249Z,12.20
2022-08-14T04:35:00.096Z,11.70
2022-08-14T04:37:46.177Z,11.60
2022-08-14T04:40:40.592Z,11.60
2022-08-14T04:43:38.830Z,11.50
2022-08-14T04:46:11.908Z,11.40
2022-08-14T04:49:00.256Z,11.40
2022-08-14T04:51:30.104Z,11.60
2022-08-14T04:54:05.728Z,11.80
2022-08-14T04:56:34.816Z,11.90
2022-08-14T04:59:10.387Z,12.10
2022-08-14T05:01:49.824Z,12.20
2022-08-14T05:04:20.269Z,12.10
2022-08-14T05:06:53.599Z,12.10
2022-08-14T05:09:23.231Z,12.20
2022-08-14T05:11:51.858Z,12.60
2022-08-14T05:14:46.677Z,12.80
2022-08-14T05:17:12.158Z,13.10
2022-08-14T05:19:44.748Z,13.40
2022-08-14T05:22:29.838Z,13.50
2022-08-14T05:24:58.468Z,13.70
2022-08-14T05:27:26.495Z,13.70
2022-08-14T05:30:01.303Z,13.70
2022-08-14T05:32:31.519Z,13.80
2022-08-14T05:35:00.939Z,14.10
2022-08-14T05:37:30.141Z,14.20
2022-08-14T05:40:00.439Z,14.20
2022-08-14T05:42:34.306Z,14.30
2022-08-14T05:45:04.575Z,14.60
2022-08-14T05:47:39.862Z,14.80
2022-08-14T05:50:18.478Z,15.10
2022-08-14T05:52:49.239Z,15.20
2022-08-14T05:55:22.958Z,15.30
2022-08-14T05:57:59.480Z,15.60
2022-08-14T06:00:36.877Z,15.80
2022-08-14T06:03:10.683Z,15.90
2022-08-14T06:05:39.613Z,16.00
2022-08-14T06:08:31.359Z,16.00
2022-08-14T06:11:06.797Z,16.50
2022-08-14T06:13:44.591Z,16.70
2022-08-14T06:16:13.092Z,17.10
2022-08-14T06:18:42.492Z,17.30
2022-08-14T06:21:13.529Z,17.70
2022-08-14T06:23:41.782Z,17.60
2022-08-14T06:26:11.182Z,17.60
2022-08-14T06:28:40.482Z,17.80
2022-08-14T06:31:13.420Z,17.80
2022-08-14T06:35:02.116Z,17.70
2022-08-14T06:36:31.771Z,17.80
2022-08-14T06:38:59.946Z,18.20
2022-08-14T06:41:52.712Z,18.30
2022-08-14T06:44:16.825Z,18.60
2022-08-14T06:46:49.314Z,18.40
2022-08-14T06:49:18.936Z,18.30
2022-08-14T06:51:47.101Z,18.70
2022-08-14T06:54:18.258Z,18.80
2022-08-14T06:56:54.276Z,18.90
2022-08-14T06:59:22.533Z,18.60
2022-08-14T07:02:13.322Z,18.60
2022-08-14T07:05:16.942Z,18.60
2022-08-14T07:07:49.401Z,18.60
2022-08-14T07:10:21.814Z,18.80
2022-08-14T07:13:01.157Z,19.00
2022-08-14T07:15:34.164Z,19.00
2022-08-14T07:18:09.357Z,19.10
2022-08-14T07:20:39.804Z,19.40
2022-08-14T07:23:19.799Z,19.30
2022-08-14T07:25:51.723Z,19.30
2022-08-14T07:28:23.443Z,19.10
2022-08-14T07:30:52.335Z,19.30
2022-08-14T07:33:24.318Z,19.20
2022-08-14T07:36:01.413Z,19.40
2022-08-14T07:38:35.872Z,19.90
2022-08-14T07:41:11.866Z,19.90
2022-08-14T07:43:44.037Z,20.40
2022-08-14T07:46:21.305Z,20.20
2022-08-14T07:48:56.844Z,20.40
2022-08-14T07:51:34.178Z,20.20
2022-08-14T07:54:06.897Z,20.60
2022-08-14T07:56:47.029Z,20.80
2022-08-14T07:59:18.353Z,20.80
2022-08-14T08:01:51.614Z,20.60
2022-08-14T08:04:27.171Z,21.00
2022-08-14T08:06:56.984Z,21.30
2022-08-14T08:09:31.737Z,20.90
2022-08-14T08:12:04.738Z,20.80
2022-08-14T08:14:56.873Z,21.20
2022-08-14T08:17:24.314Z,21.20
2022-08-14T08:19:52.849Z,21.40
2022-08-14T08:22:23.757Z,21.60
2022-08-14T08:24:55.573Z,21.90
2022-08-14T08:27:26.103Z,21.70
2022-08-14T08:30:10.225Z,21.60
2022-08-14T08:32:41.244Z,22.40
2022-08-14T08:35:20.370Z,22.00
2022-08-14T08:38:01.173Z,22.30
2022-08-14T08:40:35.736Z,22.40
2022-08-14T08:43:18.217Z,22.60
2022-08-14T08:45:54.356Z,22.20
2022-08-14T08:48:35.985Z,22.40
2022-08-14T08:51:07.268Z,22.40
2022-08-14T08:53:37.815Z,22.40
2022-08-14T08:56:06.071Z,22.40
2022-08-14T08:58:39.183Z,23.20
2022-08-14T09:01:07.471Z,22.90
2022-08-14T09:03:43.981Z,23.20
2022-08-14T09:06:56.930Z,23.00
2022-08-14T09:09:01.791Z,23.20
2022-08-14T09:11:32.406Z,23.80
2022-08-14T09:14:04.659Z,23.90
2022-08-14T09:16:34.450Z,24.40
2022-08-14T09:19:04.063Z,24.10
2022-08-14T09:21:32.990Z,24.20
2022-08-14T09:24:28.893Z,24.30
2022-08-14T09:26:52.440Z,23.70
2022-08-14T09:29:23.081Z,23.70
2022-08-14T09:31:57.384Z,23.70
2022-08-14T09:34:58.145Z,24.20
2022-08-14T09:37:48.645Z,24.30
2022-08-14T09:40:29.477Z,24.40
2022-08-14T09:43:07.073Z,24.90
2022-08-14T09:45:52.594Z,24.80
2022-08-14T09:48:27.700Z,25.30
2022-08-14T09:54:17.815Z,24.40
2022-08-14T09:56:32.926Z,25.00
2022-08-14T09:59:15.049Z,25.10
2022-08-14T10:01:46.125Z,24.80
2022-08-14T10:04:33.362Z,24.70
2022-08-14T10:07:05.104Z,24.70
2022-08-14T10:09:34.991Z,25.40
2022-08-14T10:12:06.867Z,25.80
2022-08-14T10:14:53.365Z,25.70
2022-08-14T10:17:27.595Z,26.30
2022-08-14T10:20:08.241Z,26.50
2022-08-14T10:23:22.233Z,26.40
2022-08-14T10:25:50.696Z,26.10
2022-08-14T10:28:39.585Z,25.80
2022-08-14T10:31:19.922Z,26.40
2022-08-14T10:34:04.884Z,26.40
2022-08-14T10:36:47.734Z,25.90
2022-08-14T10:39:18.673Z,25.60
2022-08-14T10:41:49.230Z,26.40
2022-08-14T10:44:29.679Z,26.60
2022-08-14T10:47:39.165Z,27.30
2022-08-14T10:49:58.704Z,27.70
2022-08-14T10:52:31.752Z,27.30
2022-08-14T10:55:13.930Z,26.70
2022-08-14T10:57:53.551Z,27.10
2022-08-14T11:00:30.267Z,27.10
2022-08-14T11:03:09.323Z,27.70
2022-08-14T11:05:42.149Z,28.40
2022-08-14T11:08:12.683Z,28.20
2022-08-14T11:10:44.892Z,27.70
2022-08-14T11:13:18.664Z,27.70
2022-08-14T11:15:49.830Z,27.90
2022-08-14T11:18:20.627Z,28.70
2022-08-14T11:21:00.374Z,28.00
2022-08-14T11:23:38.464Z,27.10
2022-08-14T11:26:10.647Z,28.30
2022-08-14T11:28:48.092Z,27.30
2022-08-14T11:31:23.302Z,27.70
2022-08-14T11:33:55.132Z,28.00
2022-08-14T11:36:35.088Z,28.00
2022-08-14T11:39:23.202Z,27.70
2022-08-14T11:42:57.348Z,28.00
2022-08-14T11:44:53.910Z,29.40
2022-08-14T11:47:26.592Z,28.60
2022-08-14T11:50:13.838Z,28.30
2022-08-14T11:52:57.071Z,28.50
2022-08-14T11:55:36.160Z,29.10
2022-08-14T11:58:09.543Z,28.70
2022-08-14T12:00:47.992Z,29.30
2022-08-14T12:03:27.204Z,29.40
2022-08-14T12:06:27.850Z,29.20
2022-08-14T12:09:00.024Z,28.90
2022-08-14T12:11:44.280Z,29.20
2022-08-14T12:14:29.974Z,30.10
2022-08-14T12:17:06.704Z,29.30
2022-08-14T12:19:53.662Z,29.80
2022-08-14T12:22:35.113Z,29.20
2022-08-14T12:25:10.066Z,29.70
2022-08-14T12:27:46.716Z,28.70
2022-08-14T12:30:37.348Z,29.30
2022-08-14T12:33:21.999Z,30.20
2022-08-14T12:35:56.280Z,29.60
2022-08-14T12:38:35.927Z,29.50
2022-08-14T12:41:06.371Z,29.00
2022-08-14T12:43:47.798Z,29.80
2022-08-14T12:46:27.482Z,30.10
2022-08-14T12:48:58.225Z,31.10
2022-08-14T12:51:30.911Z,31.20
2022-08-14T12:54:01.093Z,31.70
2022-08-14T12:56:33.751Z,31.10
2022-08-14T12:59:03.415Z,31.20
2022-08-14T13:01:59.633Z,29.10
2022-08-14T13:04:21.587Z,29.70
2022-08-14T13:06:52.832Z,31.00
2022-08-14T13:09:27.930Z,31.60
2022-08-14T13:12:32.242Z,31.40
2022-08-14T13:14:58.670Z,31.10
2022-08-14T13:17:28.471Z,30.40
2022-08-14T13:20:00.633Z,30.50
2022-08-14T13:22:38.226Z,30.70
2022-08-14T13:25:12.731Z,31.50
2022-08-14T13:27:46.654Z,30.90
2022-08-14T13:30:23.848Z,32.10
2022-08-14T13:32:54.600Z,31.50
2022-08-14T13:35:27.188Z,31.20
2022-08-14T13:37:56.660Z,31.50
2022-08-14T13:40:27.204Z,31.40
2022-08-14T13:42:57.665Z,33.20
2022-08-14T13:45:33.579Z,32.30
2022-08-14T13:48:18.434Z,32.50
2022-08-14T13:51:04.177Z,33.00
2022-08-14T13:53:41.354Z,32.10
2022-08-14T13:56:14.446Z,32.50
2022-08-14T13:58:47.126Z,32.90
2022-08-14T14:01:18.914Z,32.50
2022-08-14T14:03:51.402Z,31.50
2022-08-14T14:06:25.437Z,31.90
2022-08-14T14:08:59.152Z,31.60
2022-08-14T14:11:29.865Z,31.30
2022-08-14T14:14:00.360Z,32.70
2022-08-14T14:16:30.824Z,32.80
2022-08-14T14:19:06.402Z,32.00
2022-08-14T14:21:37.087Z,32.30
2022-08-14T14:24:07.637Z,33.40
2022-08-14T14:26:36.305Z,32.40
2022-08-14T14:29:07.781Z,32.90
2022-08-14T14:31:40.546Z,33.00
2022-08-14T14:34:19.970Z,32.20
2022-08-14T14:37:02.435Z,32.80
2022-08-14T14:39:37.479Z,32.60
2022-08-14T14:42:08.180Z,35.10
2022-08-14T14:44:41.360Z,33.00
2022-08-14T14:47:11.962Z,33.00
2022-08-14T14:49:51.412Z,33.80
2022-08-14T14:52:26.947Z,32.70
2022-08-14T14:54:59.076Z,32.60
2022-08-14T14:57:35.225Z,33.10
2022-08-14T15:00:06.789Z,33.90
2022-08-14T15:02:41.276Z,33.10
2022-08-14T15:05:11.748Z,34.20
2022-08-14T15:07:41.421Z,33.20
2022-08-14T15:10:27.518Z,33.70
2022-08-14T15:13:04.282Z,34.00
2022-08-14T15:15:33.664Z,34.00
2022-08-14T15:18:07.885Z,33.20
2022-08-14T15:20:55.122Z,32.80
2022-08-14T15:23:24.686Z,34.70
2022-08-14T15:25:54.258Z,33.80
2022-08-14T15:28:23.221Z,33.50
2022-08-14T15:30:58.797Z,33.60
2022-08-14T15:34:33.349Z,33.80
2022-08-14T15:36:45.611Z,33.70
2022-08-14T15:39:14.374Z,33.40
2022-08-14T15:41:45.332Z,33.90
2022-08-14T15:44:25.393Z,34.10
2022-08-14T15:46:56.321Z,32.50
2022-08-14T15:49:28.559Z,34.20
2022-08-14T15:52:03.474Z,32.90
2022-08-14T15:54:32.328Z,33.40
2022-08-14T15:57:06.162Z,34.60
2022-08-14T15:59:50.884Z,32.80
2022-08-14T16:02:24.576Z,33.40
2022-08-14T16:04:56.088Z,33.40
2022-08-14T16:07:27.283Z,33.40
2022-08-14T16:10:25.706Z,33.90
2022-08-14T16:12:46.721Z,33.90
2022-08-14T16:15:17.851Z,33.90
2022-08-14T16:17:46.955Z,34.10
2022-08-14T16:20:41.862Z,34.20
2022-08-14T16:23:08.743Z,33.20
2022-08-14T16:25:40.685Z,33.20
2022-08-14T16:28:10.226Z,33.30
2022-08-14T16:30:56.107Z,33.10
2022-08-14T16:33:56.642Z,32.30
2022-08-14T16:36:29.966Z,33.00
2022-08-14T16:39:01.849Z,33.00
2022-08-14T16:41:30.732Z,34.00
2022-08-14T16:44:02.657Z,33.20
2022-08-14T16:46:37.397Z,33.90
2022-08-14T16:49:10.869Z,33.10
2022-08-14T16:51:41.062Z,31.90
2022-08-14T16:54:33.662Z,33.20
2022-08-14T16:57:16.041Z,33.50
2022-08-14T16:59:52.204Z,33.20
2022-08-14T17:02:34.988Z,32.90
2022-08-14T17:05:21.581Z,32.00
2022-08-14T17:08:33.278Z,33.60
2022-08-14T17:11:04.869Z,32.10
2022-08-14T17:13:59.426Z,32.70
2022-08-14T17:16:35.856Z,32.00
2022-08-14T17:19:13.487Z,31.80
2022-08-14T17:21:47.486Z,32.50
2022-08-14T17:24:57.594Z,32.40
2022-08-14T17:27:07.362Z,32.00
2022-08-14T17:29:54.673Z,31.70
2022-08-14T17:32:44.489Z,31.30
2022-08-14T17:35:57.902Z,31.30
2022-08-14T17:38:38.475Z,31.60
2022-08-14T17:41:22.873Z,31.50
2022-08-14T17:43:55.243Z,31.80
2022-08-14T17:46:36.069Z,31.50
2022-08-14T17:49:14.622Z,30.60
2022-08-14T17:52:01.737Z,30.30
2022-08-14T17:54:35.053Z,30.00
2022-08-14T17:57:12.989Z,29.70
2022-08-14T17:59:43.532Z,29.50
2022-08-14T18:02:16.776Z,29.20
2022-08-14T18:04:47.424Z,29.00
2022-08-14T18:07:59.716Z,28.70
2022-08-14T18:10:53.084Z,28.30
2022-08-14T18:13:01.668Z,28.20
2022-08-14T18:15:36.834Z,28.20
2022-08-14T18:18:09.035Z,27.90
2022-08-14T18:21:42.213Z,27.80
2022-08-14T18:23:28.334Z,27.20
2022-08-14T18:25:58.703Z,26.90
2022-08-14T18:28:51.679Z,26.80
2022-08-14T18:31:41.956Z,26.50
2022-08-14T18:34:31.355Z,26.60
2022-08-14T18:37:17.033Z,26.50
2022-08-14T18:40:03.027Z,26.70
2022-08-14T18:42:46.256Z,26.40
2022-08-14T18:45:18.658Z,25.80
2022-08-14T18:48:06.507Z,25.50
2022-08-14T18:50:52.456Z,25.20
2022-08-14T18:53:25.430Z,25.00
2022-08-14T18:56:09.721Z,24.60
2022-08-14T18:58:57.099Z,24.30
2022-08-14T19:01:29.641Z,24.10
2022-08-14T19:03:59.076Z,24.00
2022-08-14T19:06:42.882Z,23.80
2022-08-14T19:09:50.577Z,23.70
2022-08-14T19:12:56.714Z,23.50
2022-08-14T19:15:28.379Z,23.30
2022-08-14T19:18:14.662Z,23.60
2022-08-14T19:20:53.690Z,23.40
2022-08-14T19:23:42.010Z,23.10
2022-08-14T19:26:33.929Z,22.90
2022-08-14T19:29:26.738Z,22.80
2022-08-14T19:32:36.501Z,22.60
2022-08-14T19:35:16.817Z,22.50
2022-08-14T19:37:52.079Z,22.40
2022-08-14T19:40:31.866Z,22.20
2022-08-14T19:43:06.342Z,22.10
2022-08-14T19:45:35.397Z,22.20
2022-08-14T19:48:13.070Z,22.30
2022-08-14T19:50:45.993Z,22.10
2022-08-14T19:53:17.680Z,22.20
2022-08-14T19:55:58.782Z,22.10
2022-08-14T19:58:38.989Z,22.20
2022-08-14T20:01:37.211Z,22.50
2022-08-14T20:04:46.500Z,22.30
2022-08-14T20:07:04.406Z,22.40
2022-08-14T20:11:04.631Z,22.10
2022-08-14T20:12:35.400Z,22.00
2022-08-14T20:15:08.855Z,21.90
2022-08-14T20:17:40.508Z,22.00
2022-08-14T20:20:20.905Z,22.10
2022-08-14T20:23:01.938Z,21.90
2022-08-14T20:25:37.696Z,21.70
2022-08-14T20:28:29.470Z,21.90
2022-08-14T20:31:14.244Z,21.60
2022-08-14T20:34:06.129Z,21.70
2022-08-14T20:36:39.043Z,22.20
2022-08-14T20:39:15.655Z,21.50
2022-08-14T20:41:48.915Z,21.40
2022-08-14T20:44:40.351Z,21.40
2022-08-14T20:47:08.657Z,21.40
2022-08-14T20:49:37.508Z,22.00
2022-08-14T20:52:19.277Z,21.60
2022-08-14T20:54:51.374Z,21.90
2022-08-14T20:57:20.119Z,21.80
2022-08-14T20:59:53.151Z,21.80
2022-08-14T21:02:34.424Z,21.90
2022-08-14T21:05:16.402Z,22.10
2022-08-14T21:07:51.371Z,21.90
2022-08-14T21:10:33.852Z,21.30
2022-08-14T21:13:25.539Z,21.10
2022-08-14T21:15:57.687Z,21.20
2022-08-14T21:18:29.739Z,21.00
2022-08-14T21:20:59.335Z,21.00
2022-08-14T21:23:32.731Z,20.40
2022-08-14T21:26:03.617Z,20.10
2022-08-14T21:28:35.462Z,19.90
2022-08-14T21:31:05.520Z,19.80
2022-08-14T21:33:37.149Z,19.80
2022-08-14T21:36:07.869Z,19.70
2022-08-14T21:38:38.086Z,19.60
2022-08-14T21:41:41.842Z,19.60
2022-08-14T21:44:18.407Z,19.50
2022-08-14T21:46:51.224Z,19.40
2022-08-14T21:49:25.563Z,19.40
2022-08-14T21:52:49.559Z,19.70
2022-08-14T21:54:54.453Z,19.60
2022-08-14T21:57:56.558Z,19.60
2022-08-14T22:00:35.945Z,19.50
2022-08-14T22:03:09.073Z,19.30
2022-08-14T22:05:40.307Z,19.30
2022-08-14T22:08:11.954Z,19.50
2022-08-14T22:10:41.434Z,19.60
2022-08-14T22:13:11.308Z,19.40
2022-08-14T22:15:43.827Z,19.20
2022-08-14T22:18:20.380Z,19.00
2022-08-14T22:20:53.727Z,19.00
2022-08-14T22:23:23.876Z,18.90
2022-08-14T22:25:52.731Z,18.90
2022-08-14T22:28:25.171Z,18.90
2022-08-14T22:30:54.923Z,19.00
2022-08-14T22:33:30.885Z,19.00
2022-08-14T22:36:01.577Z,19.10
2022-08-14T22:38:35.432Z,19.00
2022-08-14T22:41:26.738Z,19.00
2022-08-14T22:43:59.425Z,19.10
2022-08-14T22:46:28.361Z,19.30
2022-08-14T22:48:57.714Z,19.30
2022-08-14T22:51:28.290Z,19.30
2022-08-14T22:53:59.310Z,19.20
2022-08-14T22:56:30.468Z,19.20
2022-08-14T22:59:01.930Z,19.10
2022-08-14T23:01:56.397Z,19.00
2022-08-14T23:04:35.061Z,18.80
2022-08-14T23:07:22.125Z,18.80
2022-08-14T23:09:55.933Z,18.70
2022-08-14T23:12:29.451Z,18.70
2022-08-14T23:14:59.894Z,18.60
2022-08-14T23:17:39.132Z,18.60
2022-08-14T23:20:19.320Z,18.60
2022-08-14T23:22:53.245Z,18.50
2022-08-14T23:25:53.184Z,18.60
2022-08-14T23:28:34.674Z,18.50
2022-08-14T23:31:08.487Z,18.50
2022-08-14T23:33:45.800Z,18.50
2022-08-14T23:36:32.064Z,18.50
2022-08-14T23:39:07.149Z,18.40
2022-08-14T23:41:46.158Z,18.40
2022-08-14T23:44:22.519Z,18.40
2022-08-14T23:46:56.684Z,18.50
2022-08-14T23:49:28.636Z,18.50
2022-08-14T23:52:50.325Z,18.40
2022-08-14T23:55:11.140Z,18.50
2022-08-14T23:57:43.984Z,18.50
